Terminal Aerodrome Forecast
Issued by NWS

Home | Current Version | Previous Version | Graphics & Text | Print | Product List | Glossary On
Versions: 1 2 3 4 5 6 7 8 9 10 11 12 13 14 15 16 17 18 19 20 21 22 23
795
FTUS43 KICT 291346 AAA
TAFRSL
TAF AMD
KRSL 291346Z 2914/3012 34004KT P6SM SCT004 BKN080
      TEMPO 2914/2915 BKN004
     FM291500 10009KT P6SM FEW015 BKN060
     FM291800 13013KT P6SM BKN035
     FM292100 17013KT P6SM SCT040 BKN100=

USA.gov is the U.S. government's official web portal to all federal, state and local government web resources and services.